sensor_id;sensor_type;location;lat;lon;timestamp;temperature;humidity
49385;DHT22;36795;45.028;38.968;2023-05-13T00:01:11;16.20;53.90
49385;DHT22;36795;45.028;38.968;2023-05-13T00:03:58;16.10;53.90
49385;DHT22;36795;45.028;38.968;2023-05-13T00:06:43;16.20;54.00
49385;DHT22;36795;45.028;38.968;2023-05-13T00:09:29;16.10;54.00
49385;DHT22;36795;45.028;38.968;2023-05-13T00:12:15;16.10;54.20
49385;DHT22;36795;45.028;38.968;2023-05-13T00:15:02;16.10;54.20
49385;DHT22;36795;45.028;38.968;2023-05-13T00:17:47;16.00;54.40
49385;DHT22;36795;45.028;38.968;2023-05-13T00:20:34;15.90;54.60
49385;DHT22;36795;45.028;38.968;2023-05-13T00:23:19;15.90;54.80
49385;DHT22;36795;45.028;38.968;2023-05-13T00:26:06;15.90;54.80
49385;DHT22;36795;45.028;38.968;2023-05-13T00:28:51;15.80;54.80
49385;DHT22;36795;45.028;38.968;2023-05-13T00:31:38;15.90;54.90
49385;DHT22;36795;45.028;38.968;2023-05-13T00:34:23;15.90;54.80
49385;DHT22;36795;45.028;38.968;2023-05-13T00:37:10;15.90;54.90
49385;DHT22;36795;45.028;38.968;2023-05-13T00:39:56;15.80;54.90
49385;DHT22;36795;45.028;38.968;2023-05-13T00:42:42;15.80;55.00
49385;DHT22;36795;45.028;38.968;2023-05-13T00:45:29;15.80;55.10
49385;DHT22;36795;45.028;38.968;2023-05-13T00:48:15;15.70;55.10
49385;DHT22;36795;45.028;38.968;2023-05-13T00:51:02;15.70;55.10
49385;DHT22;36795;45.028;38.968;2023-05-13T00:53:49;15.70;55.00
49385;DHT22;36795;45.028;38.968;2023-05-13T00:56:37;15.70;55.00
49385;DHT22;36795;45.028;38.968;2023-05-13T00:59:27;15.70;55.10
49385;DHT22;36795;45.028;38.968;2023-05-13T01:02:20;15.70;55.20
49385;DHT22;36795;45.028;38.968;2023-05-13T01:05:25;15.70;55.20
49385;DHT22;36795;45.028;38.968;2023-05-13T01:08:31;15.70;55.20
49385;DHT22;36795;45.028;38.968;2023-05-13T01:11:26;15.70;55.10
49385;DHT22;36795;45.028;38.968;2023-05-13T01:14:21;15.70;55.10
49385;DHT22;36795;45.028;38.968;2023-05-13T01:17:17;15.70;55.10
49385;DHT22;36795;45.028;38.968;2023-05-13T01:20:05;15.70;55.10
49385;DHT22;36795;45.028;38.968;2023-05-13T01:22:52;15.70;55.10
49385;DHT22;36795;45.028;38.968;2023-05-13T01:25:39;15.70;55.10
49385;DHT22;36795;45.028;38.968;2023-05-13T01:28:26;15.70;55.20
49385;DHT22;36795;45.028;38.968;2023-05-13T01:31:13;15.70;55.20
49385;DHT22;36795;45.028;38.968;2023-05-13T01:34:00;15.80;55.20
49385;DHT22;36795;45.028;38.968;2023-05-13T01:36:47;15.70;55.20
49385;DHT22;36795;45.028;38.968;2023-05-13T01:39:37;15.70;55.30
49385;DHT22;36795;45.028;38.968;2023-05-13T01:42:25;15.70;55.30
49385;DHT22;36795;45.028;38.968;2023-05-13T01:45:12;15.60;55.50
49385;DHT22;36795;45.028;38.968;2023-05-13T01:47:58;15.60;55.50
49385;DHT22;36795;45.028;38.968;2023-05-13T01:50:46;15.60;55.50
49385;DHT22;36795;45.028;38.968;2023-05-13T01:53:32;15.60;55.40
49385;DHT22;36795;45.028;38.968;2023-05-13T01:56:19;15.60;55.50
49385;DHT22;36795;45.028;38.968;2023-05-13T01:59:09;15.60;55.50
49385;DHT22;36795;45.028;38.968;2023-05-13T02:01:56;15.60;55.40
49385;DHT22;36795;45.028;38.968;2023-05-13T02:04:43;15.60;55.40
49385;DHT22;36795;45.028;38.968;2023-05-13T02:07:29;15.60;55.40
49385;DHT22;36795;45.028;38.968;2023-05-13T02:10:16;15.60;55.30
49385;DHT22;36795;45.028;38.968;2023-05-13T02:13:02;15.70;55.40
49385;DHT22;36795;45.028;38.968;2023-05-13T02:15:50;15.60;55.30
49385;DHT22;36795;45.028;38.968;2023-05-13T02:18:35;15.60;55.50
49385;DHT22;36795;45.028;38.968;2023-05-13T02:21:22;15.60;55.50
49385;DHT22;36795;45.028;38.968;2023-05-13T02:24:08;15.60;55.50
49385;DHT22;36795;45.028;38.968;2023-05-13T02:26:54;15.60;55.50
49385;DHT22;36795;45.028;38.968;2023-05-13T02:29:41;15.60;55.50
49385;DHT22;36795;45.028;38.968;2023-05-13T02:32:26;15.60;55.60
49385;DHT22;36795;45.028;38.968;2023-05-13T02:35:12;15.70;55.50
49385;DHT22;36795;45.028;38.968;2023-05-13T02:37:59;15.70;55.50
49385;DHT22;36795;45.028;38.968;2023-05-13T02:40:45;15.70;55.60
49385;DHT22;36795;45.028;38.968;2023-05-13T02:43:31;15.70;55.60
49385;DHT22;36795;45.028;38.968;2023-05-13T02:46:18;15.60;55.60
49385;DHT22;36795;45.028;38.968;2023-05-13T02:49:04;15.60;55.80
49385;DHT22;36795;45.028;38.968;2023-05-13T02:51:50;15.60;55.80
49385;DHT22;36795;45.028;38.968;2023-05-13T02:54:39;15.60;55.80
49385;DHT22;36795;45.028;38.968;2023-05-13T02:57:25;15.70;55.80
49385;DHT22;36795;45.028;38.968;2023-05-13T03:00:12;15.70;55.80
49385;DHT22;36795;45.028;38.968;2023-05-13T03:02:58;15.60;55.90
49385;DHT22;36795;45.028;38.968;2023-05-13T03:05:44;15.70;55.90
49385;DHT22;36795;45.028;38.968;2023-05-13T03:08:31;15.80;55.70
49385;DHT22;36795;45.028;38.968;2023-05-13T03:11:18;15.80;55.50
49385;DHT22;36795;45.028;38.968;2023-05-13T03:14:04;15.80;56.10
49385;DHT22;36795;45.028;38.968;2023-05-13T03:16:50;15.90;55.40
49385;DHT22;36795;45.028;38.968;2023-05-13T03:19:37;15.90;55.40
49385;DHT22;36795;45.028;38.968;2023-05-13T03:22:23;15.90;55.30
49385;DHT22;36795;45.028;38.968;2023-05-13T03:25:10;15.90;55.30
49385;DHT22;36795;45.028;38.968;2023-05-13T03:27:56;15.90;55.20
49385;DHT22;36795;45.028;38.968;2023-05-13T03:30:44;16.00;55.10
49385;DHT22;36795;45.028;38.968;2023-05-13T03:33:31;16.00;55.20
49385;DHT22;36795;45.028;38.968;2023-05-13T03:36:17;16.00;55.10
49385;DHT22;36795;45.028;38.968;2023-05-13T03:39:03;16.00;55.00
49385;DHT22;36795;45.028;38.968;2023-05-13T03:41:49;16.10;55.00
49385;DHT22;36795;45.028;38.968;2023-05-13T03:44:35;16.20;54.80
49385;DHT22;36795;45.028;38.968;2023-05-13T03:47:21;16.30;54.60
49385;DHT22;36795;45.028;38.968;2023-05-13T03:50:09;16.40;54.50
49385;DHT22;36795;45.028;38.968;2023-05-13T03:52:56;16.40;54.30
49385;DHT22;36795;45.028;38.968;2023-05-13T03:55:41;16.30;54.40
49385;DHT22;36795;45.028;38.968;2023-05-13T03:58:28;16.30;54.50
49385;DHT22;36795;45.028;38.968;2023-05-13T04:01:15;16.30;54.50
49385;DHT22;36795;45.028;38.968;2023-05-13T04:04:01;16.30;54.60
49385;DHT22;36795;45.028;38.968;2023-05-13T04:06:50;16.30;54.60
49385;DHT22;36795;45.028;38.968;2023-05-13T04:09:36;16.40;54.50
49385;DHT22;36795;45.028;38.968;2023-05-13T04:12:22;16.40;54.50
49385;DHT22;36795;45.028;38.968;2023-05-13T04:15:09;16.50;54.60
49385;DHT22;36795;45.028;38.968;2023-05-13T04:17:55;16.50;54.60
49385;DHT22;36795;45.028;38.968;2023-05-13T04:20:41;16.60;54.60
49385;DHT22;36795;45.028;38.968;2023-05-13T04:23:27;16.60;54.50
49385;DHT22;36795;45.028;38.968;2023-05-13T04:26:16;16.70;54.50
49385;DHT22;36795;45.028;38.968;2023-05-13T04:29:02;16.70;54.40
49385;DHT22;36795;45.028;38.968;2023-05-13T04:31:50;16.70;54.40
49385;DHT22;36795;45.028;38.968;2023-05-13T04:34:36;16.70;54.70
49385;DHT22;36795;45.028;38.968;2023-05-13T04:37:22;16.60;54.80
49385;DHT22;36795;45.028;38.968;2023-05-13T04:40:10;16.60;54.90
49385;DHT22;36795;45.028;38.968;2023-05-13T04:42:56;16.60;54.90
49385;DHT22;36795;45.028;38.968;2023-05-13T04:45:43;16.70;54.80
49385;DHT22;36795;45.028;38.968;2023-05-13T04:48:30;16.90;54.50
49385;DHT22;36795;45.028;38.968;2023-05-13T04:51:16;17.00;54.30
49385;DHT22;36795;45.028;38.968;2023-05-13T04:54:03;17.10;54.30
49385;DHT22;36795;45.028;38.968;2023-05-13T04:56:50;17.10;53.90
49385;DHT22;36795;45.028;38.968;2023-05-13T04:59:38;17.20;54.00
49385;DHT22;36795;45.028;38.968;2023-05-13T05:02:25;17.20;53.70
49385;DHT22;36795;45.028;38.968;2023-05-13T05:05:13;17.30;53.80
49385;DHT22;36795;45.028;38.968;2023-05-13T05:08:00;17.50;53.40
49385;DHT22;36795;45.028;38.968;2023-05-13T05:10:46;17.50;53.20
49385;DHT22;36795;45.028;38.968;2023-05-13T05:13:32;17.50;53.40
49385;DHT22;36795;45.028;38.968;2023-05-13T05:16:19;17.50;53.30
49385;DHT22;36795;45.028;38.968;2023-05-13T05:19:05;17.60;53.30
49385;DHT22;36795;45.028;38.968;2023-05-13T05:21:52;17.90;52.90
49385;DHT22;36795;45.028;38.968;2023-05-13T05:24:38;18.10;52.30
49385;DHT22;36795;45.028;38.968;2023-05-13T05:27:24;18.30;52.00
49385;DHT22;36795;45.028;38.968;2023-05-13T05:30:10;18.30;51.70
49385;DHT22;36795;45.028;38.968;2023-05-13T05:32:58;18.30;51.80
49385;DHT22;36795;45.028;38.968;2023-05-13T05:35:45;18.30;51.70
49385;DHT22;36795;45.028;38.968;2023-05-13T05:38:32;18.40;52.30
49385;DHT22;36795;45.028;38.968;2023-05-13T05:41:18;18.60;51.30
49385;DHT22;36795;45.028;38.968;2023-05-13T05:44:05;19.00;51.00
49385;DHT22;36795;45.028;38.968;2023-05-13T05:46:51;19.10;50.30
49385;DHT22;36795;45.028;38.968;2023-05-13T05:49:38;19.10;50.60
49385;DHT22;36795;45.028;38.968;2023-05-13T05:52:24;19.10;50.40
49385;DHT22;36795;45.028;38.968;2023-05-13T05:55:11;19.10;50.50
49385;DHT22;36795;45.028;38.968;2023-05-13T05:57:57;19.30;50.30
49385;DHT22;36795;45.028;38.968;2023-05-13T06:00:43;19.50;50.20
49385;DHT22;36795;45.028;38.968;2023-05-13T06:03:30;19.70;49.90
49385;DHT22;36795;45.028;38.968;2023-05-13T06:06:16;19.90;49.70
49385;DHT22;36795;45.028;38.968;2023-05-13T06:09:03;19.90;49.20
49385;DHT22;36795;45.028;38.968;2023-05-13T06:11:49;19.90;49.40
49385;DHT22;36795;45.028;38.968;2023-05-13T06:14:35;20.00;49.30
49385;DHT22;36795;45.028;38.968;2023-05-13T06:17:21;20.10;49.30
49385;DHT22;36795;45.028;38.968;2023-05-13T06:20:07;20.20;49.40
49385;DHT22;36795;45.028;38.968;2023-05-13T06:22:54;20.30;49.20
49385;DHT22;36795;45.028;38.968;2023-05-13T06:25:40;20.40;48.70
49385;DHT22;36795;45.028;38.968;2023-05-13T06:28:26;20.40;48.30
49385;DHT22;36795;45.028;38.968;2023-05-13T06:31:12;20.40;48.10
49385;DHT22;36795;45.028;38.968;2023-05-13T06:33:58;20.40;48.00
49385;DHT22;36795;45.028;38.968;2023-05-13T06:36:44;20.40;47.80
49385;DHT22;36795;45.028;38.968;2023-05-13T06:39:30;20.30;48.30
49385;DHT22;36795;45.028;38.968;2023-05-13T06:42:17;20.30;48.20
49385;DHT22;36795;45.028;38.968;2023-05-13T06:45:03;20.30;48.30
49385;DHT22;36795;45.028;38.968;2023-05-13T06:47:51;20.50;48.20
49385;DHT22;36795;45.028;38.968;2023-05-13T06:50:37;20.70;47.80
49385;DHT22;36795;45.028;38.968;2023-05-13T06:53:23;20.80;47.60
49385;DHT22;36795;45.028;38.968;2023-05-13T06:56:09;20.90;47.30
49385;DHT22;36795;45.028;38.968;2023-05-13T06:58:55;21.00;46.80
49385;DHT22;36795;45.028;38.968;2023-05-13T07:01:41;21.20;46.60
49385;DHT22;36795;45.028;38.968;2023-05-13T07:04:27;21.50;46.10
49385;DHT22;36795;45.028;38.968;2023-05-13T07:07:14;21.50;44.40
49385;DHT22;36795;45.028;38.968;2023-05-13T07:10:00;21.30;44.40
49385;DHT22;36795;45.028;38.968;2023-05-13T07:12:46;21.60;44.20
49385;DHT22;36795;45.028;38.968;2023-05-13T07:15:33;21.70;44.10
49385;DHT22;36795;45.028;38.968;2023-05-13T07:18:18;21.80;43.50
49385;DHT22;36795;45.028;38.968;2023-05-13T07:21:05;22.00;42.70
49385;DHT22;36795;45.028;38.968;2023-05-13T07:23:50;22.10;42.40
49385;DHT22;36795;45.028;38.968;2023-05-13T07:26:37;22.20;42.40
49385;DHT22;36795;45.028;38.968;2023-05-13T07:29:23;22.20;42.00
49385;DHT22;36795;45.028;38.968;2023-05-13T07:32:10;22.40;41.90
49385;DHT22;36795;45.028;38.968;2023-05-13T07:34:56;22.60;41.70
49385;DHT22;36795;45.028;38.968;2023-05-13T07:37:45;22.70;41.30
49385;DHT22;36795;45.028;38.968;2023-05-13T07:40:31;22.70;41.20
49385;DHT22;36795;45.028;38.968;2023-05-13T07:43:18;22.80;41.60
49385;DHT22;36795;45.028;38.968;2023-05-13T07:46:07;22.80;40.90
49385;DHT22;36795;45.028;38.968;2023-05-13T07:48:54;22.80;41.30
49385;DHT22;36795;45.028;38.968;2023-05-13T07:51:40;23.00;40.70
49385;DHT22;36795;45.028;38.968;2023-05-13T07:54:27;23.00;40.70
49385;DHT22;36795;45.028;38.968;2023-05-13T07:57:13;23.00;40.90
49385;DHT22;36795;45.028;38.968;2023-05-13T07:59:59;23.10;40.90
49385;DHT22;36795;45.028;38.968;2023-05-13T08:02:45;23.50;40.70
49385;DHT22;36795;45.028;38.968;2023-05-13T08:05:31;23.80;39.70
49385;DHT22;36795;45.028;38.968;2023-05-13T08:08:16;24.20;39.30
49385;DHT22;36795;45.028;38.968;2023-05-13T08:11:03;24.50;39.00
49385;DHT22;36795;45.028;38.968;2023-05-13T08:13:49;24.70;38.30
49385;DHT22;36795;45.028;38.968;2023-05-13T08:16:36;24.60;38.40
49385;DHT22;36795;45.028;38.968;2023-05-13T08:19:22;24.80;38.30
49385;DHT22;36795;45.028;38.968;2023-05-13T08:22:08;25.30;37.60
49385;DHT22;36795;45.028;38.968;2023-05-13T08:24:54;25.00;37.80
49385;DHT22;36795;45.028;38.968;2023-05-13T08:27:40;24.80;38.30
49385;DHT22;36795;45.028;38.968;2023-05-13T08:30:26;24.40;38.60
49385;DHT22;36795;45.028;38.968;2023-05-13T08:33:12;24.30;39.20
49385;DHT22;36795;45.028;38.968;2023-05-13T08:35:59;24.60;38.90
49385;DHT22;36795;45.028;38.968;2023-05-13T08:38:46;24.60;38.80
49385;DHT22;36795;45.028;38.968;2023-05-13T08:41:31;24.70;38.10
49385;DHT22;36795;45.028;38.968;2023-05-13T08:44:20;24.80;38.70
49385;DHT22;36795;45.028;38.968;2023-05-13T08:47:28;25.20;38.60
49385;DHT22;36795;45.028;38.968;2023-05-13T08:50:18;25.60;38.20
49385;DHT22;36795;45.028;38.968;2023-05-13T08:53:05;25.90;37.70
49385;DHT22;36795;45.028;38.968;2023-05-13T08:55:53;25.90;37.50
49385;DHT22;36795;45.028;38.968;2023-05-13T08:58:38;25.80;37.50
49385;DHT22;36795;45.028;38.968;2023-05-13T09:01:25;25.20;38.00
49385;DHT22;36795;45.028;38.968;2023-05-13T09:04:11;24.80;38.40
49385;DHT22;36795;45.028;38.968;2023-05-13T09:06:58;24.60;38.20
49385;DHT22;36795;45.028;38.968;2023-05-13T09:09:44;24.40;38.00
49385;DHT22;36795;45.028;38.968;2023-05-13T09:12:53;24.00;38.20
49385;DHT22;36795;45.028;38.968;2023-05-13T09:15:43;23.50;39.20
49385;DHT22;36795;45.028;38.968;2023-05-13T09:18:30;23.50;39.50
49385;DHT22;36795;45.028;38.968;2023-05-13T09:21:28;23.70;39.70
49385;DHT22;36795;45.028;38.968;2023-05-13T09:24:15;23.90;39.30
49385;DHT22;36795;45.028;38.968;2023-05-13T09:27:05;23.90;39.00
49385;DHT22;36795;45.028;38.968;2023-05-13T09:29:58;23.80;39.00
49385;DHT22;36795;45.028;38.968;2023-05-13T09:33:16;23.80;38.70
49385;DHT22;36795;45.028;38.968;2023-05-13T09:36:04;23.60;39.10
49385;DHT22;36795;45.028;38.968;2023-05-13T09:38:52;23.30;39.80
49385;DHT22;36795;45.028;38.968;2023-05-13T09:41:40;23.20;40.20
49385;DHT22;36795;45.028;38.968;2023-05-13T09:44:26;23.20;40.20
49385;DHT22;36795;45.028;38.968;2023-05-13T09:47:13;23.20;40.40
49385;DHT22;36795;45.028;38.968;2023-05-13T09:50:01;23.20;40.80
49385;DHT22;36795;45.028;38.968;2023-05-13T09:52:49;23.10;41.00
49385;DHT22;36795;45.028;38.968;2023-05-13T09:55:35;23.20;41.00
49385;DHT22;36795;45.028;38.968;2023-05-13T09:58:22;23.50;40.70
49385;DHT22;36795;45.028;38.968;2023-05-13T10:01:09;23.60;40.70
49385;DHT22;36795;45.028;38.968;2023-05-13T10:03:56;23.80;40.60
49385;DHT22;36795;45.028;38.968;2023-05-13T10:06:44;23.80;40.60
49385;DHT22;36795;45.028;38.968;2023-05-13T10:09:36;23.70;41.00
49385;DHT22;36795;45.028;38.968;2023-05-13T10:12:24;23.80;41.10
49385;DHT22;36795;45.028;38.968;2023-05-13T10:15:11;24.10;41.00
49385;DHT22;36795;45.028;38.968;2023-05-13T10:17:57;24.00;40.70
49385;DHT22;36795;45.028;38.968;2023-05-13T10:20:44;23.80;40.80
49385;DHT22;36795;45.028;38.968;2023-05-13T10:23:31;23.90;41.00
49385;DHT22;36795;45.028;38.968;2023-05-13T10:26:22;23.90;40.50
49385;DHT22;36795;45.028;38.968;2023-05-13T10:29:09;23.80;40.40
49385;DHT22;36795;45.028;38.968;2023-05-13T10:31:56;23.70;40.50
49385;DHT22;36795;45.028;38.968;2023-05-13T10:34:44;23.70;40.60
49385;DHT22;36795;45.028;38.968;2023-05-13T10:43:56;23.50;41.00
49385;DHT22;36795;45.028;38.968;2023-05-13T10:46:42;23.30;41.40
49385;DHT22;36795;45.028;38.968;2023-05-13T10:49:33;23.30;41.40
49385;DHT22;36795;45.028;38.968;2023-05-13T10:52:20;23.30;41.60
49385;DHT22;36795;45.028;38.968;2023-05-13T10:55:14;23.40;41.60
49385;DHT22;36795;45.028;38.968;2023-05-13T10:58:09;23.50;41.60
49385;DHT22;36795;45.028;38.968;2023-05-13T11:01:14;23.70;41.40
49385;DHT22;36795;45.028;38.968;2023-05-13T11:04:02;23.60;41.10
49385;DHT22;36795;45.028;38.968;2023-05-13T11:06:50;23.60;41.50
49385;DHT22;36795;45.028;38.968;2023-05-13T11:09:37;23.70;40.90
49385;DHT22;36795;45.028;38.968;2023-05-13T11:12:23;23.60;41.10
49385;DHT22;36795;45.028;38.968;2023-05-13T11:15:20;23.50;41.10
49385;DHT22;36795;45.028;38.968;2023-05-13T11:18:06;23.80;40.90
49385;DHT22;36795;45.028;38.968;2023-05-13T11:20:53;23.70;40.50
49385;DHT22;36795;45.028;38.968;2023-05-13T11:23:56;23.60;40.80
49385;DHT22;36795;45.028;38.968;2023-05-13T11:26:52;23.80;40.70
49385;DHT22;36795;45.028;38.968;2023-05-13T11:29:54;23.70;40.80
49385;DHT22;36795;45.028;38.968;2023-05-13T11:35:36;23.50;40.80
49385;DHT22;36795;45.028;38.968;2023-05-13T11:38:23;23.30;41.00
49385;DHT22;36795;45.028;38.968;2023-05-13T11:41:10;23.20;41.50
49385;DHT22;36795;45.028;38.968;2023-05-13T11:43:58;23.30;41.80
49385;DHT22;36795;45.028;38.968;2023-05-13T11:46:58;23.60;41.30
49385;DHT22;36795;45.028;38.968;2023-05-13T11:49:45;23.60;40.80
49385;DHT22;36795;45.028;38.968;2023-05-13T11:52:32;23.60;41.00
49385;DHT22;36795;45.028;38.968;2023-05-13T11:55:31;23.70;40.80
49385;DHT22;36795;45.028;38.968;2023-05-13T11:58:20;23.60;40.90
49385;DHT22;36795;45.028;38.968;2023-05-13T12:01:12;23.50;40.60
49385;DHT22;36795;45.028;38.968;2023-05-13T12:04:02;23.50;40.70
49385;DHT22;36795;45.028;38.968;2023-05-13T12:06:48;23.70;40.70
49385;DHT22;36795;45.028;38.968;2023-05-13T12:09:34;23.80;40.50
49385;DHT22;36795;45.028;38.968;2023-05-13T12:12:21;23.80;40.50
49385;DHT22;36795;45.028;38.968;2023-05-13T12:15:13;23.80;40.70
49385;DHT22;36795;45.028;38.968;2023-05-13T12:17:59;24.00;40.20
49385;DHT22;36795;45.028;38.968;2023-05-13T12:20:46;24.00;39.70
49385;DHT22;36795;45.028;38.968;2023-05-13T12:23:41;24.10;39.70
49385;DHT22;36795;45.028;38.968;2023-05-13T12:26:28;24.40;39.40
49385;DHT22;36795;45.028;38.968;2023-05-13T12:29:14;24.40;39.40
49385;DHT22;36795;45.028;38.968;2023-05-13T12:32:05;24.30;39.40
49385;DHT22;36795;45.028;38.968;2023-05-13T12:34:51;23.90;39.90
49385;DHT22;36795;45.028;38.968;2023-05-13T12:37:37;23.90;40.30
49385;DHT22;36795;45.028;38.968;2023-05-13T12:40:25;23.80;40.80
49385;DHT22;36795;45.028;38.968;2023-05-13T12:43:12;23.50;41.20
49385;DHT22;36795;45.028;38.968;2023-05-13T12:45:58;23.10;41.80
49385;DHT22;36795;45.028;38.968;2023-05-13T12:48:45;23.00;42.20
49385;DHT22;36795;45.028;38.968;2023-05-13T12:51:31;22.80;42.40
49385;DHT22;36795;45.028;38.968;2023-05-13T12:54:21;22.60;42.70
49385;DHT22;36795;45.028;38.968;2023-05-13T12:57:10;22.50;43.10
49385;DHT22;36795;45.028;38.968;2023-05-13T12:59:56;22.40;43.30
49385;DHT22;36795;45.028;38.968;2023-05-13T13:02:42;22.30;43.40
49385;DHT22;36795;45.028;38.968;2023-05-13T13:05:28;22.30;43.70
49385;DHT22;36795;45.028;38.968;2023-05-13T13:08:14;22.20;43.80
49385;DHT22;36795;45.028;38.968;2023-05-13T13:11:01;22.10;44.00
49385;DHT22;36795;45.028;38.968;2023-05-13T13:13:49;22.00;44.10
49385;DHT22;36795;45.028;38.968;2023-05-13T13:16:35;21.90;44.30
49385;DHT22;36795;45.028;38.968;2023-05-13T13:19:21;21.90;44.50
49385;DHT22;36795;45.028;38.968;2023-05-13T13:22:08;21.90;44.40
49385;DHT22;36795;45.028;38.968;2023-05-13T13:24:54;22.00;44.50
49385;DHT22;36795;45.028;38.968;2023-05-13T13:27:40;21.90;44.60
49385;DHT22;36795;45.028;38.968;2023-05-13T13:30:26;21.90;44.70
49385;DHT22;36795;45.028;38.968;2023-05-13T13:33:13;22.00;44.70
49385;DHT22;36795;45.028;38.968;2023-05-13T13:35:59;21.90;44.60
49385;DHT22;36795;45.028;38.968;2023-05-13T13:38:46;21.80;44.80
49385;DHT22;36795;45.028;38.968;2023-05-13T13:41:31;21.80;45.00
49385;DHT22;36795;45.028;38.968;2023-05-13T13:44:18;21.70;45.30
49385;DHT22;36795;45.028;38.968;2023-05-13T13:47:04;21.70;45.40
49385;DHT22;36795;45.028;38.968;2023-05-13T13:49:50;21.80;45.50
49385;DHT22;36795;45.028;38.968;2023-05-13T13:52:36;21.80;45.60
49385;DHT22;36795;45.028;38.968;2023-05-13T13:55:23;21.80;45.60
49385;DHT22;36795;45.028;38.968;2023-05-13T13:58:09;21.60;45.80
49385;DHT22;36795;45.028;38.968;2023-05-13T14:00:55;21.50;46.00
49385;DHT22;36795;45.028;38.968;2023-05-13T14:03:41;21.60;46.30
49385;DHT22;36795;45.028;38.968;2023-05-13T14:06:27;21.60;46.40
49385;DHT22;36795;45.028;38.968;2023-05-13T14:09:14;21.50;46.60
49385;DHT22;36795;45.028;38.968;2023-05-13T14:11:59;21.40;46.90
49385;DHT22;36795;45.028;38.968;2023-05-13T14:14:46;21.40;47.00
49385;DHT22;36795;45.028;38.968;2023-05-13T14:17:32;21.40;47.30
49385;DHT22;36795;45.028;38.968;2023-05-13T14:20:19;21.30;47.60
49385;DHT22;36795;45.028;38.968;2023-05-13T14:23:05;21.30;47.90
49385;DHT22;36795;45.028;38.968;2023-05-13T14:25:52;21.30;48.20
49385;DHT22;36795;45.028;38.968;2023-05-13T14:28:38;21.20;48.50
49385;DHT22;36795;45.028;38.968;2023-05-13T14:31:24;21.20;48.70
49385;DHT22;36795;45.028;38.968;2023-05-13T14:34:10;21.20;48.70
49385;DHT22;36795;45.028;38.968;2023-05-13T14:36:56;21.20;48.60
49385;DHT22;36795;45.028;38.968;2023-05-13T14:39:41;21.10;48.60
49385;DHT22;36795;45.028;38.968;2023-05-13T14:42:28;21.00;48.70
49385;DHT22;36795;45.028;38.968;2023-05-13T14:45:13;21.00;48.80
49385;DHT22;36795;45.028;38.968;2023-05-13T14:48:00;20.90;48.80
49385;DHT22;36795;45.028;38.968;2023-05-13T14:50:46;20.90;48.80
49385;DHT22;36795;45.028;38.968;2023-05-13T14:53:32;20.90;48.70
49385;DHT22;36795;45.028;38.968;2023-05-13T14:56:18;20.90;48.70
49385;DHT22;36795;45.028;38.968;2023-05-13T14:59:04;20.90;48.80
49385;DHT22;36795;45.028;38.968;2023-05-13T15:01:50;20.90;48.90
49385;DHT22;36795;45.028;38.968;2023-05-13T15:04:36;21.00;49.00
49385;DHT22;36795;45.028;38.968;2023-05-13T15:07:22;21.00;49.30
49385;DHT22;36795;45.028;38.968;2023-05-13T15:10:11;21.00;49.80
49385;DHT22;36795;45.028;38.968;2023-05-13T15:12:57;20.90;50.10
49385;DHT22;36795;45.028;38.968;2023-05-13T15:15:44;20.80;50.30
49385;DHT22;36795;45.028;38.968;2023-05-13T15:18:30;20.70;50.50
49385;DHT22;36795;45.028;38.968;2023-05-13T15:21:17;20.60;50.60
49385;DHT22;36795;45.028;38.968;2023-05-13T15:24:02;20.50;50.60
49385;DHT22;36795;45.028;38.968;2023-05-13T15:26:49;20.40;50.60
49385;DHT22;36795;45.028;38.968;2023-05-13T15:29:35;20.40;50.80
49385;DHT22;36795;45.028;38.968;2023-05-13T15:32:21;20.30;51.10
49385;DHT22;36795;45.028;38.968;2023-05-13T15:35:07;20.30;51.40
49385;DHT22;36795;45.028;38.968;2023-05-13T15:37:54;20.40;51.50
49385;DHT22;36795;45.028;38.968;2023-05-13T15:40:39;20.30;51.50
49385;DHT22;36795;45.028;38.968;2023-05-13T15:43:26;20.30;51.70
49385;DHT22;36795;45.028;38.968;2023-05-13T15:46:11;20.20;51.80
49385;DHT22;36795;45.028;38.968;2023-05-13T15:48:58;20.20;51.90
49385;DHT22;36795;45.028;38.968;2023-05-13T15:51:44;20.20;52.00
49385;DHT22;36795;45.028;38.968;2023-05-13T15:54:31;20.10;52.00
49385;DHT22;36795;45.028;38.968;2023-05-13T15:57:16;20.00;52.20
49385;DHT22;36795;45.028;38.968;2023-05-13T16:00:06;20.00;52.10
49385;DHT22;36795;45.028;38.968;2023-05-13T16:02:52;20.00;52.10
49385;DHT22;36795;45.028;38.968;2023-05-13T16:05:38;19.90;52.20
49385;DHT22;36795;45.028;38.968;2023-05-13T16:08:24;19.90;52.30
49385;DHT22;36795;45.028;38.968;2023-05-13T16:11:11;19.80;52.20
49385;DHT22;36795;45.028;38.968;2023-05-13T16:13:57;19.80;52.30
49385;DHT22;36795;45.028;38.968;2023-05-13T16:16:43;19.80;52.50
49385;DHT22;36795;45.028;38.968;2023-05-13T16:19:29;19.70;52.50
49385;DHT22;36795;45.028;38.968;2023-05-13T16:22:34;19.60;52.60
49385;DHT22;36795;45.028;38.968;2023-05-13T16:25:22;19.60;52.80
49385;DHT22;36795;45.028;38.968;2023-05-13T16:28:09;19.60;53.00
49385;DHT22;36795;45.028;38.968;2023-05-13T16:30:55;19.50;53.20
49385;DHT22;36795;45.028;38.968;2023-05-13T16:33:42;19.40;53.40
49385;DHT22;36795;45.028;38.968;2023-05-13T16:36:28;19.30;53.70
49385;DHT22;36795;45.028;38.968;2023-05-13T16:39:14;19.30;53.80
49385;DHT22;36795;45.028;38.968;2023-05-13T16:42:00;19.30;53.90
49385;DHT22;36795;45.028;38.968;2023-05-13T16:44:47;19.20;53.90
49385;DHT22;36795;45.028;38.968;2023-05-13T16:47:32;19.30;53.90
49385;DHT22;36795;45.028;38.968;2023-05-13T16:50:19;19.20;53.90
49385;DHT22;36795;45.028;38.968;2023-05-13T16:53:05;19.10;53.90
49385;DHT22;36795;45.028;38.968;2023-05-13T16:55:51;19.10;53.90
49385;DHT22;36795;45.028;38.968;2023-05-13T16:58:37;19.10;54.00
49385;DHT22;36795;45.028;38.968;2023-05-13T17:01:24;19.00;54.10
49385;DHT22;36795;45.028;38.968;2023-05-13T17:04:10;19.00;54.20
49385;DHT22;36795;45.028;38.968;2023-05-13T17:06:56;19.00;54.30
49385;DHT22;36795;45.028;38.968;2023-05-13T17:09:42;19.00;54.50
49385;DHT22;36795;45.028;38.968;2023-05-13T17:12:29;18.90;54.60
49385;DHT22;36795;45.028;38.968;2023-05-13T17:15:15;18.90;54.80
49385;DHT22;36795;45.028;38.968;2023-05-13T17:18:01;18.80;55.40
49385;DHT22;36795;45.028;38.968;2023-05-13T17:20:47;18.80;55.00
49385;DHT22;36795;45.028;38.968;2023-05-13T17:23:33;18.80;55.10
49385;DHT22;36795;45.028;38.968;2023-05-13T17:26:20;18.80;55.30
49385;DHT22;36795;45.028;38.968;2023-05-13T17:29:07;18.70;55.40